sensor_id;sensor_type;location;lat;lon;timestamp;pressure;altitude;pressure_sealevel;temperature;humidity
44027;BME280;29696;55.698;37.460;2023-01-26T00:01:14;100193.47;;;-2.84;78.26
44027;BME280;29696;55.698;37.460;2023-01-26T00:03:41;100178.84;;;-2.84;78.44
44027;BME280;29696;55.698;37.460;2023-01-26T00:06:10;100170.09;;;-2.80;78.72
44027;BME280;29696;55.698;37.460;2023-01-26T00:08:38;100175.19;;;-2.77;78.21
44027;BME280;29696;55.698;37.460;2023-01-26T00:11:06;100169.09;;;-2.74;77.99
44027;BME280;29696;55.698;37.460;2023-01-26T00:13:33;100181.16;;;-2.73;78.04
44027;BME280;29696;55.698;37.460;2023-01-26T00:16:00;100173.38;;;-2.71;78.00
44027;BME280;29696;55.698;37.460;2023-01-26T00:18:27;100162.16;;;-2.72;78.01
44027;BME280;29696;55.698;37.460;2023-01-26T00:20:55;100160.44;;;-2.71;78.15
44027;BME280;29696;55.698;37.460;2023-01-26T00:23:23;100165.47;;;-2.67;77.99
44027;BME280;29696;55.698;37.460;2023-01-26T00:25:49;100162.03;;;-2.67;77.89
44027;BME280;29696;55.698;37.460;2023-01-26T00:28:15;100160.34;;;-2.68;77.91
44027;BME280;29696;55.698;37.460;2023-01-26T00:30:42;100163.72;;;-2.66;77.97
44027;BME280;29696;55.698;37.460;2023-01-26T00:33:08;100169.69;;;-2.63;77.78
44027;BME280;29696;55.698;37.460;2023-01-26T00:35:34;100172.22;;;-2.60;77.95
44027;BME280;29696;55.698;37.460;2023-01-26T00:38:02;100172.09;;;-2.55;78.08
44027;BME280;29696;55.698;37.460;2023-01-26T00:40:29;100171.94;;;-2.49;77.86
44027;BME280;29696;55.698;37.460;2023-01-26T00:42:56;100161.50;;;-2.46;77.67
44027;BME280;29696;55.698;37.460;2023-01-26T00:45:24;100157.13;;;-2.44;77.40
44027;BME280;29696;55.698;37.460;2023-01-26T00:47:50;100164.06;;;-2.44;77.29
44027;BME280;29696;55.698;37.460;2023-01-26T00:50:16;100159.66;;;-2.42;77.00
44027;BME280;29696;55.698;37.460;2023-01-26T00:52:42;100161.41;;;-2.43;76.95
44027;BME280;29696;55.698;37.460;2023-01-26T00:55:09;100160.63;;;-2.45;76.94
44027;BME280;29696;55.698;37.460;2023-01-26T00:57:35;100163.16;;;-2.43;77.06
44027;BME280;29696;55.698;37.460;2023-01-26T01:00:03;100159.75;;;-2.45;76.83
44027;BME280;29696;55.698;37.460;2023-01-26T01:02:31;100155.44;;;-2.45;77.03
44027;BME280;29696;55.698;37.460;2023-01-26T01:04:57;100146.78;;;-2.44;77.16
44027;BME280;29696;55.698;37.460;2023-01-26T01:07:25;100148.44;;;-2.41;77.11
44027;BME280;29696;55.698;37.460;2023-01-26T01:09:51;100154.56;;;-2.45;76.88
44027;BME280;29696;55.698;37.460;2023-01-26T01:12:17;100162.25;;;-2.41;76.84
44027;BME280;29696;55.698;37.460;2023-01-26T01:14:44;100161.38;;;-2.41;76.87
44027;BME280;29696;55.698;37.460;2023-01-26T01:17:10;100159.66;;;-2.41;76.70
44027;BME280;29696;55.698;37.460;2023-01-26T01:19:36;100152.00;;;-2.45;76.50
44027;BME280;29696;55.698;37.460;2023-01-26T01:22:03;100149.41;;;-2.45;76.55
44027;BME280;29696;55.698;37.460;2023-01-26T01:24:29;100146.03;;;-2.49;76.64
44027;BME280;29696;55.698;37.460;2023-01-26T01:26:55;100139.03;;;-2.45;76.93
44027;BME280;29696;55.698;37.460;2023-01-26T01:29:21;100137.34;;;-2.45;76.94
44027;BME280;29696;55.698;37.460;2023-01-26T01:31:48;100152.69;;;-2.39;76.89
44027;BME280;29696;55.698;37.460;2023-01-26T01:34:14;100141.50;;;-2.39;76.46
44027;BME280;29696;55.698;37.460;2023-01-26T01:36:40;100150.78;;;-2.32;76.51
44027;BME280;29696;55.698;37.460;2023-01-26T01:39:06;100147.53;;;-2.39;76.15
44027;BME280;29696;55.698;37.460;2023-01-26T01:41:33;100153.53;;;-2.38;76.19
44027;BME280;29696;55.698;37.460;2023-01-26T01:44:20;100144.78;;;-2.33;76.72
44027;BME280;29696;55.698;37.460;2023-01-26T01:47:40;100144.72;;;-2.31;76.41
44027;BME280;29696;55.698;37.460;2023-01-26T01:49:59;100144.94;;;-2.39;76.30
44027;BME280;29696;55.698;37.460;2023-01-26T01:52:30;100135.34;;;-2.35;76.44
44027;BME280;29696;55.698;37.460;2023-01-26T01:55:04;100135.22;;;-2.31;76.62
44027;BME280;29696;55.698;37.460;2023-01-26T01:57:37;100139.53;;;-2.31;75.92
44027;BME280;29696;55.698;37.460;2023-01-26T02:00:14;100142.19;;;-2.33;75.99
44027;BME280;29696;55.698;37.460;2023-01-26T02:02:43;100141.28;;;-2.32;75.56
44027;BME280;29696;55.698;37.460;2023-01-26T02:05:36;100123.34;;;-2.38;75.67
44027;BME280;29696;55.698;37.460;2023-01-26T02:08:04;100133.75;;;-2.39;75.67
44027;BME280;29696;55.698;37.460;2023-01-26T02:10:31;100139.88;;;-2.43;75.94
44027;BME280;29696;55.698;37.460;2023-01-26T02:12:58;100143.44;;;-2.47;75.92
44027;BME280;29696;55.698;37.460;2023-01-26T02:15:26;100129.72;;;-2.51;76.20
44027;BME280;29696;55.698;37.460;2023-01-26T02:17:53;100128.84;;;-2.50;76.03
44027;BME280;29696;55.698;37.460;2023-01-26T02:20:48;100125.09;;;-2.40;76.28
44027;BME280;29696;55.698;37.460;2023-01-26T02:26:47;100119.53;;;-2.57;76.25
44027;BME280;29696;55.698;37.460;2023-01-26T02:29:13;100112.53;;;-2.54;76.47
44027;BME280;29696;55.698;37.460;2023-01-26T02:31:42;100112.50;;;-2.52;76.58
44027;BME280;29696;55.698;37.460;2023-01-26T02:34:09;100108.94;;;-2.48;76.46
44027;BME280;29696;55.698;37.460;2023-01-26T02:36:36;100108.06;;;-2.48;76.30
44027;BME280;29696;55.698;37.460;2023-01-26T02:40:42;100116.31;;;-2.34;76.58
44027;BME280;29696;55.698;37.460;2023-01-26T02:42:35;100101.09;;;-2.45;76.08
44027;BME280;29696;55.698;37.460;2023-01-26T02:45:07;100098.44;;;-2.42;76.21
44027;BME280;29696;55.698;37.460;2023-01-26T02:47:34;100103.53;;;-2.39;76.21
44027;BME280;29696;55.698;37.460;2023-01-26T02:50:03;100107.78;;;-2.36;76.16
44027;BME280;29696;55.698;37.460;2023-01-26T02:52:30;100093.19;;;-2.40;76.42
44027;BME280;29696;55.698;37.460;2023-01-26T02:55:07;100104.38;;;-2.38;76.20
44027;BME280;29696;55.698;37.460;2023-01-26T02:57:55;100102.53;;;-2.33;76.47
44027;BME280;29696;55.698;37.460;2023-01-26T03:00:43;100106.56;;;-2.24;76.49
44027;BME280;29696;55.698;37.460;2023-01-26T03:03:15;100101.47;;;-2.27;76.43
44027;BME280;29696;55.698;37.460;2023-01-26T03:05:43;100104.13;;;-2.29;76.47
44027;BME280;29696;55.698;37.460;2023-01-26T03:08:10;100102.38;;;-2.28;76.31
44027;BME280;29696;55.698;37.460;2023-01-26T03:10:38;100090.34;;;-2.30;76.41
44027;BME280;29696;55.698;37.460;2023-01-26T03:13:06;100081.72;;;-2.30;76.30
44027;BME280;29696;55.698;37.460;2023-01-26T03:15:32;100083.59;;;-2.37;75.97
44027;BME280;29696;55.698;37.460;2023-01-26T03:18:15;100093.94;;;-2.35;76.07
44027;BME280;29696;55.698;37.460;2023-01-26T03:21:02;100088.09;;;-2.43;76.15
44027;BME280;29696;55.698;37.460;2023-01-26T03:23:48;100083.91;;;-2.47;76.23
44027;BME280;29696;55.698;37.460;2023-01-26T03:26:33;100071.84;;;-2.48;76.46
44027;BME280;29696;55.698;37.460;2023-01-26T03:29:19;100077.06;;;-2.50;76.49
44027;BME280;29696;55.698;37.460;2023-01-26T03:31:46;100078.81;;;-2.50;76.47
44027;BME280;29696;55.698;37.460;2023-01-26T03:34:13;100080.50;;;-2.49;76.71
44027;BME280;29696;55.698;37.460;2023-01-26T03:36:41;100082.19;;;-2.48;76.78
44027;BME280;29696;55.698;37.460;2023-01-26T03:39:12;100084.75;;;-2.47;76.70
44027;BME280;29696;55.698;37.460;2023-01-26T03:41:59;100083.00;;;-2.46;76.72
44027;BME280;29696;55.698;37.460;2023-01-26T03:44:44;100092.16;;;-2.33;76.85
44027;BME280;29696;55.698;37.460;2023-01-26T03:47:33;100080.25;;;-2.40;76.49
44027;BME280;29696;55.698;37.460;2023-01-26T03:50:18;100073.41;;;-2.43;76.44
44027;BME280;29696;55.698;37.460;2023-01-26T03:53:18;100074.91;;;-2.34;76.31
44027;BME280;29696;55.698;37.460;2023-01-26T03:56:08;100086.19;;;-2.37;76.12
44027;BME280;29696;55.698;37.460;2023-01-26T03:58:50;100087.91;;;-2.36;76.02
44027;BME280;29696;55.698;37.460;2023-01-26T04:01:18;100092.34;;;-2.39;75.79
44027;BME280;29696;55.698;37.460;2023-01-26T04:03:50;100096.53;;;-2.35;76.01
44027;BME280;29696;55.698;37.460;2023-01-26T04:06:39;100093.16;;;-2.39;75.89
44027;BME280;29696;55.698;37.460;2023-01-26T04:09:25;100088.03;;;-2.40;75.80
44027;BME280;29696;55.698;37.460;2023-01-26T04:11:52;100094.94;;;-2.41;75.97
44027;BME280;29696;55.698;37.460;2023-01-26T04:14:19;100085.53;;;-2.43;76.12
44027;BME280;29696;55.698;37.460;2023-01-26T04:17:04;100097.53;;;-2.41;75.80
44027;BME280;29696;55.698;37.460;2023-01-26T04:19:49;100093.25;;;-2.42;75.97
44027;BME280;29696;55.698;37.460;2023-01-26T04:22:38;100091.59;;;-2.44;75.74
44027;BME280;29696;55.698;37.460;2023-01-26T04:25:17;100093.28;;;-2.43;75.96
44027;BME280;29696;55.698;37.460;2023-01-26T04:27:44;100093.34;;;-2.45;75.91
44027;BME280;29696;55.698;37.460;2023-01-26T04:30:13;100089.84;;;-2.44;75.91
44027;BME280;29696;55.698;37.460;2023-01-26T04:32:40;100079.41;;;-2.41;75.72
44027;BME280;29696;55.698;37.460;2023-01-26T04:35:08;100082.91;;;-2.42;75.30
44027;BME280;29696;55.698;37.460;2023-01-26T04:37:37;100085.53;;;-2.43;75.50
44027;BME280;29696;55.698;37.460;2023-01-26T04:40:05;100089.84;;;-2.44;75.59
44027;BME280;29696;55.698;37.460;2023-01-26T04:42:33;100080.34;;;-2.43;75.68
44027;BME280;29696;55.698;37.460;2023-01-26T04:45:01;100087.28;;;-2.45;75.25
44027;BME280;29696;55.698;37.460;2023-01-26T04:47:29;100083.84;;;-2.44;75.51
44027;BME280;29696;55.698;37.460;2023-01-26T04:49:56;100094.03;;;-2.40;75.64
44027;BME280;29696;55.698;37.460;2023-01-26T04:52:23;100086.25;;;-2.38;75.51
44027;BME280;29696;55.698;37.460;2023-01-26T04:54:50;100075.84;;;-2.37;75.23
44027;BME280;29696;55.698;37.460;2023-01-26T04:57:16;100083.69;;;-2.40;75.11
44027;BME280;29696;55.698;37.460;2023-01-26T04:59:48;100086.09;;;-2.34;74.83
44027;BME280;29696;55.698;37.460;2023-01-26T05:02:15;100092.94;;;-2.31;74.74
44027;BME280;29696;55.698;37.460;2023-01-26T05:04:41;100079.16;;;-2.32;74.75
44027;BME280;29696;55.698;37.460;2023-01-26T05:07:08;100075.59;;;-2.27;74.80
44027;BME280;29696;55.698;37.460;2023-01-26T05:09:36;100077.38;;;-2.30;74.38
44027;BME280;29696;55.698;37.460;2023-01-26T05:12:21;100075.47;;;-2.23;74.71
44027;BME280;29696;55.698;37.460;2023-01-26T05:15:18;100073.63;;;-2.18;74.51
44027;BME280;29696;55.698;37.460;2023-01-26T05:18:02;100073.63;;;-2.18;74.16
44027;BME280;29696;55.698;37.460;2023-01-26T05:20:55;100084.00;;;-2.19;74.21
44027;BME280;29696;55.698;37.460;2023-01-26T05:23:25;100077.94;;;-2.18;74.57
44027;BME280;29696;55.698;37.460;2023-01-26T05:26:10;100076.19;;;-2.18;74.41
44027;BME280;29696;55.698;37.460;2023-01-26T05:29:05;100070.97;;;-2.16;74.49
44027;BME280;29696;55.698;37.460;2023-01-26T05:31:33;100060.56;;;-2.15;74.32
44027;BME280;29696;55.698;37.460;2023-01-26T05:33:59;100066.59;;;-2.14;74.13
44027;BME280;29696;55.698;37.460;2023-01-26T05:36:26;100064.00;;;-2.14;73.85
44027;BME280;29696;55.698;37.460;2023-01-26T05:38:52;100064.09;;;-2.17;73.98
44027;BME280;29696;55.698;37.460;2023-01-26T05:41:25;100066.69;;;-2.17;74.14
44027;BME280;29696;55.698;37.460;2023-01-26T05:44:05;100061.44;;;-2.14;74.55
44027;BME280;29696;55.698;37.460;2023-01-26T05:46:38;100057.94;;;-2.13;74.53
44027;BME280;29696;55.698;37.460;2023-01-26T05:49:04;100054.50;;;-2.14;74.53
44027;BME280;29696;55.698;37.460;2023-01-26T05:51:31;100067.25;;;-2.08;74.26
44027;BME280;29696;55.698;37.460;2023-01-26T05:53:58;100068.19;;;-2.10;74.10
44027;BME280;29696;55.698;37.460;2023-01-26T05:56:24;100078.47;;;-2.07;73.92
44027;BME280;29696;55.698;37.460;2023-01-26T05:58:57;100083.47;;;-2.01;74.03
44027;BME280;29696;55.698;37.460;2023-01-26T06:01:24;100072.28;;;-2.01;73.53
44027;BME280;29696;55.698;37.460;2023-01-26T06:03:56;100068.00;;;-2.02;73.36
44027;BME280;29696;55.698;37.460;2023-01-26T06:06:25;100060.97;;;-1.99;73.57
44027;BME280;29696;55.698;37.460;2023-01-26T06:08:59;100074.69;;;-1.95;73.52
44027;BME280;29696;55.698;37.460;2023-01-26T06:11:52;100063.53;;;-1.97;73.29
44027;BME280;29696;55.698;37.460;2023-01-26T06:14:24;100052.22;;;-1.95;73.36
44027;BME280;29696;55.698;37.460;2023-01-26T06:16:50;100057.31;;;-1.92;73.37
44027;BME280;29696;55.698;37.460;2023-01-26T06:19:19;100063.38;;;-1.93;73.25
44027;BME280;29696;55.698;37.460;2023-01-26T06:21:51;100052.28;;;-1.96;73.47
44027;BME280;29696;55.698;37.460;2023-01-26T06:24:18;100052.41;;;-2.01;72.99
44027;BME280;29696;55.698;37.460;2023-01-26T06:26:48;100054.88;;;-1.96;73.34
44027;BME280;29696;55.698;37.460;2023-01-26T06:29:15;100055.69;;;-1.94;73.22
44027;BME280;29696;55.698;37.460;2023-01-26T06:31:42;100050.50;;;-1.94;73.18
44027;BME280;29696;55.698;37.460;2023-01-26T06:34:09;100044.25;;;-1.89;72.94
44027;BME280;29696;55.698;37.460;2023-01-26T06:36:39;100042.56;;;-1.90;73.10
44027;BME280;29696;55.698;37.460;2023-01-26T06:39:08;100043.28;;;-1.85;73.26
44027;BME280;29696;55.698;37.460;2023-01-26T06:41:36;100050.16;;;-1.84;72.96
44027;BME280;29696;55.698;37.460;2023-01-26T06:44:02;100044.06;;;-1.83;72.75
44027;BME280;29696;55.698;37.460;2023-01-26T06:46:29;100044.00;;;-1.79;73.11
44027;BME280;29696;55.698;37.460;2023-01-26T06:48:55;100042.28;;;-1.80;72.87
44027;BME280;29696;55.698;37.460;2023-01-26T06:51:51;100042.72;;;-1.66;72.87
44027;BME280;29696;55.698;37.460;2023-01-26T06:54:23;100036.06;;;-1.73;73.02
44027;BME280;29696;55.698;37.460;2023-01-26T06:57:29;100035.91;;;-1.69;73.04
44027;BME280;29696;55.698;37.460;2023-01-26T07:00:30;100043.56;;;-1.66;72.62
44027;BME280;29696;55.698;37.460;2023-01-26T07:03:24;100040.06;;;-1.65;72.78
44027;BME280;29696;55.698;37.460;2023-01-26T07:05:51;100033.28;;;-1.67;72.35
44027;BME280;29696;55.698;37.460;2023-01-26T07:08:17;100037.63;;;-1.69;72.14
44027;BME280;29696;55.698;37.460;2023-01-26T07:10:44;100025.69;;;-1.73;72.83
44027;BME280;29696;55.698;37.460;2023-01-26T07:13:10;100032.50;;;-1.71;72.63
44027;BME280;29696;55.698;37.460;2023-01-26T07:15:36;100037.63;;;-1.69;72.56
44027;BME280;29696;55.698;37.460;2023-01-26T07:18:02;100039.31;;;-1.68;72.67
44027;BME280;29696;55.698;37.460;2023-01-26T07:20:29;100031.47;;;-1.65;72.68
44027;BME280;29696;55.698;37.460;2023-01-26T07:22:55;100037.34;;;-1.60;72.39
44027;BME280;29696;55.698;37.460;2023-01-26T07:25:22;100035.47;;;-1.55;72.75
44027;BME280;29696;55.698;37.460;2023-01-26T07:27:48;100038.72;;;-1.48;72.13
44027;BME280;29696;55.698;37.460;2023-01-26T07:30:14;100024.09;;;-1.51;71.69
44027;BME280;29696;55.698;37.460;2023-01-26T07:32:41;100035.28;;;-1.49;71.82
44027;BME280;29696;55.698;37.460;2023-01-26T07:35:07;100033.47;;;-1.47;71.86
44027;BME280;29696;55.698;37.460;2023-01-26T07:37:33;100036.03;;;-1.45;71.90
44027;BME280;29696;55.698;37.460;2023-01-26T07:40:00;100034.34;;;-1.46;71.74
44027;BME280;29696;55.698;37.460;2023-01-26T07:42:26;100040.28;;;-1.43;71.91
44027;BME280;29696;55.698;37.460;2023-01-26T07:45:11;100031.41;;;-1.35;71.90
44027;BME280;29696;55.698;37.460;2023-01-26T07:47:37;100031.34;;;-1.34;71.73
44027;BME280;29696;55.698;37.460;2023-01-26T07:50:04;100024.34;;;-1.32;71.44
44027;BME280;29696;55.698;37.460;2023-01-26T07:52:32;100025.06;;;-1.27;71.40
44027;BME280;29696;55.698;37.460;2023-01-26T07:54:58;100028.47;;;-1.25;71.35
44027;BME280;29696;55.698;37.460;2023-01-26T07:57:24;100019.75;;;-1.22;71.38
44027;BME280;29696;55.698;37.460;2023-01-26T07:59:51;100035.13;;;-1.18;70.75
44027;BME280;29696;55.698;37.460;2023-01-26T08:02:17;100033.38;;;-1.17;71.14
44027;BME280;29696;55.698;37.460;2023-01-26T08:04:43;100038.44;;;-1.12;70.87
44027;BME280;29696;55.698;37.460;2023-01-26T08:07:10;100028.25;;;-1.19;70.60
44027;BME280;29696;55.698;37.460;2023-01-26T08:09:36;100031.16;;;-1.28;70.85
44027;BME280;29696;55.698;37.460;2023-01-26T08:12:02;100021.47;;;-1.23;71.76
44027;BME280;29696;55.698;37.460;2023-01-26T08:14:29;100017.88;;;-1.19;71.50
44027;BME280;29696;55.698;37.460;2023-01-26T08:16:55;100013.41;;;-1.13;71.16
44027;BME280;29696;55.698;37.460;2023-01-26T08:19:21;100017.63;;;-1.11;70.90
44027;BME280;29696;55.698;37.460;2023-01-26T08:21:47;100016.88;;;-1.15;70.57
44027;BME280;29696;55.698;37.460;2023-01-26T08:24:14;100014.25;;;-1.13;71.01
44027;BME280;29696;55.698;37.460;2023-01-26T08:26:40;100019.22;;;-1.07;71.06
44027;BME280;29696;55.698;37.460;2023-01-26T08:29:06;100013.88;;;-1.02;71.07
44027;BME280;29696;55.698;37.460;2023-01-26T08:31:33;100004.19;;;-0.97;70.97
44027;BME280;29696;55.698;37.460;2023-01-26T08:33:59;100003.25;;;-0.95;70.67
44027;BME280;29696;55.698;37.460;2023-01-26T08:36:25;100005.66;;;-0.90;70.21
44027;BME280;29696;55.698;37.460;2023-01-26T08:38:53;100008.22;;;-0.88;70.14
44027;BME280;29696;55.698;37.460;2023-01-26T08:41:19;100006.47;;;-0.88;70.16
44027;BME280;29696;55.698;37.460;2023-01-26T08:43:46;100003.06;;;-0.90;69.79
44027;BME280;29696;55.698;37.460;2023-01-26T08:46:12;100001.56;;;-0.96;69.88
44027;BME280;29696;55.698;37.460;2023-01-26T08:48:39;99984.97;;;-0.92;70.41
44027;BME280;29696;55.698;37.460;2023-01-26T08:51:06;100001.13;;;-0.83;70.41
44027;BME280;29696;55.698;37.460;2023-01-26T08:53:34;100000.16;;;-0.81;69.77
44027;BME280;29696;55.698;37.460;2023-01-26T08:56:02;99995.06;;;-0.84;69.74
44027;BME280;29696;55.698;37.460;2023-01-26T08:58:28;99999.38;;;-0.83;70.11
44027;BME280;29696;55.698;37.460;2023-01-26T09:00:55;100007.28;;;-0.86;70.09
44027;BME280;29696;55.698;37.460;2023-01-26T09:03:21;100000.34;;;-0.85;70.16
44027;BME280;29696;55.698;37.460;2023-01-26T09:05:47;100010.59;;;-0.82;70.05
44027;BME280;29696;55.698;37.460;2023-01-26T09:08:13;99992.47;;;-0.84;70.09
44027;BME280;29696;55.698;37.460;2023-01-26T09:10:40;99991.44;;;-0.78;70.12
44027;BME280;29696;55.698;37.460;2023-01-26T09:13:08;99990.38;;;-0.73;70.15
44027;BME280;29696;55.698;37.460;2023-01-26T09:15:36;99984.91;;;-0.65;69.83
44027;BME280;29696;55.698;37.460;2023-01-26T09:18:03;99973.59;;;-0.62;69.62
44027;BME280;29696;55.698;37.460;2023-01-26T09:20:29;99971.66;;;-0.57;69.46
44027;BME280;29696;55.698;37.460;2023-01-26T09:22:55;99967.25;;;-0.55;69.21
44027;BME280;29696;55.698;37.460;2023-01-26T09:25:22;99973.28;;;-0.55;69.31
44027;BME280;29696;55.698;37.460;2023-01-26T09:27:48;99978.31;;;-0.50;69.28
44027;BME280;29696;55.698;37.460;2023-01-26T09:30:15;99970.69;;;-0.55;69.31
44027;BME280;29696;55.698;37.460;2023-01-26T09:32:41;99975.88;;;-0.55;69.28
44027;BME280;29696;55.698;37.460;2023-01-26T09:35:08;99973.28;;;-0.55;69.70
44027;BME280;29696;55.698;37.460;2023-01-26T09:37:37;99968.16;;;-0.56;69.61
44027;BME280;29696;55.698;37.460;2023-01-26T09:40:04;99976.69;;;-0.53;69.65
44027;BME280;29696;55.698;37.460;2023-01-26T09:43:04;99969.16;;;-0.37;70.11
44027;BME280;29696;55.698;37.460;2023-01-26T09:49:20;99971.75;;;-0.37;70.02
44027;BME280;29696;55.698;37.460;2023-01-26T09:52:09;99967.75;;;-0.46;69.79
44027;BME280;29696;55.698;37.460;2023-01-26T09:54:45;99968.94;;;-0.54;70.00
44027;BME280;29696;55.698;37.460;2023-01-26T09:57:17;99967.50;;;-0.63;70.03
44027;BME280;29696;55.698;37.460;2023-01-26T10:00:08;99970.66;;;-0.53;70.40
44027;BME280;29696;55.698;37.460;2023-01-26T10:06:19;99964.44;;;-0.49;70.63
44027;BME280;29696;55.698;37.460;2023-01-26T10:09:16;99962.75;;;-0.50;70.60
44027;BME280;29696;55.698;37.460;2023-01-26T10:11:58;99965.28;;;-0.49;70.49
44027;BME280;29696;55.698;37.460;2023-01-26T10:15:00;99967.75;;;-0.46;70.55
44027;BME280;29696;55.698;37.460;2023-01-26T10:17:31;99956.13;;;-0.59;70.12
44027;BME280;29696;55.698;37.460;2023-01-26T10:23:47;99958.66;;;-0.57;70.74
44027;BME280;29696;55.698;37.460;2023-01-26T10:26:19;99956.75;;;-0.52;70.85
44027;BME280;29696;55.698;37.460;2023-01-26T10:28:50;99956.94;;;-0.57;70.90
44027;BME280;29696;55.698;37.460;2023-01-26T10:31:22;99951.78;;;-0.58;71.10
44027;BME280;29696;55.698;37.460;2023-01-26T10:34:14;99942.03;;;-0.52;71.25
44027;BME280;29696;55.698;37.460;2023-01-26T10:36:43;99947.44;;;-0.58;71.12
44027;BME280;29696;55.698;37.460;2023-01-26T10:39:15;99955.06;;;-0.53;71.23
44027;BME280;29696;55.698;37.460;2023-01-26T10:42:01;99948.84;;;-0.49;71.54
44027;BME280;29696;55.698;37.460;2023-01-26T10:44:38;99942.88;;;-0.51;71.34
44027;BME280;29696;55.698;37.460;2023-01-26T10:47:16;99942.88;;;-0.51;71.45
44027;BME280;29696;55.698;37.460;2023-01-26T10:49:43;99933.84;;;-0.64;71.35
44027;BME280;29696;55.698;37.460;2023-01-26T10:52:38;99944.47;;;-0.47;72.14
44027;BME280;29696;55.698;37.460;2023-01-26T10:55:21;99931.81;;;-0.56;72.25
44027;BME280;29696;55.698;37.460;2023-01-26T10:57:47;99922.09;;;-0.51;72.70
44027;BME280;29696;55.698;37.460;2023-01-26T11:00:36;99928.41;;;-0.35;73.36
44027;BME280;29696;55.698;37.460;2023-01-26T11:03:23;99924.88;;;-0.32;73.79
44027;BME280;29696;55.698;37.460;2023-01-26T11:06:18;99917.81;;;-0.29;73.96
44027;BME280;29696;55.698;37.460;2023-01-26T11:08:44;99912.25;;;-0.41;73.81
44027;BME280;29696;55.698;37.460;2023-01-26T11:11:26;99914.41;;;-0.31;74.23
44027;BME280;29696;55.698;37.460;2023-01-26T11:14:17;99911.81;;;-0.31;74.38
44027;BME280;29696;55.698;37.460;2023-01-26T11:16:59;99906.69;;;-0.32;74.50
44027;BME280;29696;55.698;37.460;2023-01-26T11:20:14;99903.06;;;-0.28;73.69
44027;BME280;29696;55.698;37.460;2023-01-26T11:35:28;99883.44;;;-0.35;72.10
44027;BME280;29696;55.698;37.460;2023-01-26T11:38:29;99880.13;;;-0.39;72.28
44027;BME280;29696;55.698;37.460;2023-01-26T12:07:11;99879.84;;;-0.55;72.56
44027;BME280;29696;55.698;37.460;2023-01-26T12:09:42;99884.31;;;-0.58;72.91
44027;BME280;29696;55.698;37.460;2023-01-26T12:12:41;99883.03;;;-0.48;73.06
44027;BME280;29696;55.698;37.460;2023-01-26T12:15:20;99879.56;;;-0.47;72.66
44027;BME280;29696;55.698;37.460;2023-01-26T12:18:34;99882.75;;;-0.40;72.47
44027;BME280;29696;55.698;37.460;2023-01-26T12:21:10;99867.41;;;-0.47;72.42
44027;BME280;29696;55.698;37.460;2023-01-26T12:24:04;99863.78;;;-0.42;72.52
44027;BME280;29696;55.698;37.460;2023-01-26T12:26:37;99875.47;;;-0.54;72.77
44027;BME280;29696;55.698;37.460;2023-01-26T12:29:38;99880.44;;;-0.48;72.73
44027;BME280;29696;55.698;37.460;2023-01-26T12:32:12;99868.69;;;-0.57;73.00
44027;BME280;29696;55.698;37.460;2023-01-26T12:34:40;99873.19;;;-0.62;73.36
44027;BME280;29696;55.698;37.460;2023-01-26T12:37:46;99871.78;;;-0.47;73.33
44027;BME280;29696;55.698;37.460;2023-01-26T12:40:40;99872.59;;;-0.47;73.10
44027;BME280;29696;55.698;37.460;2023-01-26T12:46:37;99875.56;;;-0.56;72.70
44027;BME280;29696;55.698;37.460;2023-01-26T12:49:19;99865.84;;;-0.51;72.98
44027;BME280;29696;55.698;37.460;2023-01-26T12:51:54;99876.47;;;-0.57;72.82
44027;BME280;29696;55.698;37.460;2023-01-26T12:54:44;99864.97;;;-0.51;73.07
44027;BME280;29696;55.698;37.460;2023-01-26T12:57:19;99863.50;;;-0.57;72.99
44027;BME280;29696;55.698;37.460;2023-01-26T12:59:46;99871.47;;;-0.63;72.70
44027;BME280;29696;55.698;37.460;2023-01-26T13:02:36;99869.28;;;-0.50;73.04
44027;BME280;29696;55.698;37.460;2023-01-26T13:05:03;99874.88;;;-0.61;72.84
44027;BME280;29696;55.698;37.460;2023-01-26T13:07:37;99872.28;;;-0.61;73.09
44027;BME280;29696;55.698;37.460;2023-01-26T13:10:42;99867.69;;;-0.54;73.30
44027;BME280;29696;55.698;37.460;2023-01-26T13:13:52;99868.38;;;-0.49;73.40
44027;BME280;29696;55.698;37.460;2023-01-26T13:16:39;99880.41;;;-0.47;73.21
44027;BME280;29696;55.698;37.460;2023-01-26T13:22:44;99879.72;;;-0.52;73.18
44027;BME280;29696;55.698;37.460;2023-01-26T13:25:38;99877.59;;;-0.64;73.06
44027;BME280;29696;55.698;37.460;2023-01-26T13:28:11;99885.25;;;-0.61;73.52
44027;BME280;29696;55.698;37.460;2023-01-26T13:30:43;99869.81;;;-0.64;73.52
44027;BME280;29696;55.698;37.460;2023-01-26T13:33:31;99883.34;;;-0.56;73.55
44027;BME280;29696;55.698;37.460;2023-01-26T13:36:01;99875.72;;;-0.60;73.53
44027;BME280;29696;55.698;37.460;2023-01-26T13:38:39;99875.47;;;-0.54;73.58
44027;BME280;29696;55.698;37.460;2023-01-26T13:41:18;99870.38;;;-0.56;73.14
44027;BME280;29696;55.698;37.460;2023-01-26T13:43:55;99872.25;;;-0.59;73.48
44027;BME280;29696;55.698;37.460;2023-01-26T13:46:34;99872.25;;;-0.59;73.71
44027;BME280;29696;55.698;37.460;2023-01-26T13:49:02;99882.84;;;-0.65;73.70
44027;BME280;29696;55.698;37.460;2023-01-26T13:51:33;99883.50;;;-0.60;73.77
44027;BME280;29696;55.698;37.460;2023-01-26T13:54:11;99877.34;;;-0.58;73.85
44027;BME280;29696;55.698;37.460;2023-01-26T13:56:43;99880.78;;;-0.57;73.76
44027;BME280;29696;55.698;37.460;2023-01-26T13:59:23;99884.41;;;-0.61;73.40
44027;BME280;29696;55.698;37.460;2023-01-26T14:01:55;99879.13;;;-0.58;73.50
44027;BME280;29696;55.698;37.460;2023-01-26T14:04:24;99874.03;;;-0.61;73.80
44027;BME280;29696;55.698;37.460;2023-01-26T14:07:14;99878.88;;;-0.52;74.14
44027;BME280;29696;55.698;37.460;2023-01-26T14:09:49;99882.50;;;-0.56;73.88
44027;BME280;29696;55.698;37.460;2023-01-26T14:12:28;99879.19;;;-0.60;73.81
44027;BME280;29696;55.698;37.460;2023-01-26T14:15:03;99878.38;;;-0.62;73.83
44027;BME280;29696;55.698;37.460;2023-01-26T14:17:33;99880.16;;;-0.62;74.00